sensor_id;sensor_type;location;lat;lon;timestamp;pressure;altitude;pressure_sealevel;temperature;humidity
41830;BME280;38614;43.472;23.936;2023-01-26T00:01:16;101220.97;;;-0.21;100.00
41830;BME280;38614;43.472;23.936;2023-01-26T00:04:07;101201.00;;;-0.42;100.00
41830;BME280;38614;43.472;23.936;2023-01-26T00:06:57;101214.69;;;-0.27;100.00
41830;BME280;38614;43.472;23.936;2023-01-26T00:09:45;101233.38;;;-0.36;100.00
41830;BME280;38614;43.472;23.936;2023-01-26T00:12:32;101218.19;;;-0.32;100.00
41830;BME280;38614;43.472;23.936;2023-01-26T00:15:20;101230.47;;;-0.24;100.00
41830;BME280;38614;43.472;23.936;2023-01-26T00:18:10;101218.28;;;-0.16;100.00
41830;BME280;38614;43.472;23.936;2023-01-26T00:21:00;101222.56;;;-0.25;100.00
41830;BME280;38614;43.472;23.936;2023-01-26T00:23:49;101214.09;;;-0.29;100.00
41830;BME280;38614;43.472;23.936;2023-01-26T00:26:38;101212.78;;;-0.26;100.00
41830;BME280;38614;43.472;23.936;2023-01-26T00:29:25;101217.41;;;-0.27;100.00
41830;BME280;38614;43.472;23.936;2023-01-26T00:32:13;101217.69;;;-0.23;100.00
41830;BME280;38614;43.472;23.936;2023-01-26T00:35:02;101192.63;;;-0.36;100.00
41830;BME280;38614;43.472;23.936;2023-01-26T00:37:49;101223.06;;;-0.29;100.00
41830;BME280;38614;43.472;23.936;2023-01-26T00:40:38;101195.84;;;-0.39;100.00
41830;BME280;38614;43.472;23.936;2023-01-26T00:43:27;101218.78;;;-0.19;100.00
41830;BME280;38614;43.472;23.936;2023-01-26T00:46:15;101211.09;;;-0.33;100.00
41830;BME280;38614;43.472;23.936;2023-01-26T00:49:03;101203.56;;;-0.25;100.00
41830;BME280;38614;43.472;23.936;2023-01-26T00:51:53;101225.38;;;-0.10;100.00
41830;BME280;38614;43.472;23.936;2023-01-26T00:54:44;101229.44;;;-0.13;100.00
41830;BME280;38614;43.472;23.936;2023-01-26T00:57:33;101227.28;;;-0.11;100.00
41830;BME280;38614;43.472;23.936;2023-01-26T01:00:22;101226.72;;;-0.13;100.00
41830;BME280;38614;43.472;23.936;2023-01-26T01:03:10;101226.78;;;-0.03;100.00
41830;BME280;38614;43.472;23.936;2023-01-26T01:05:58;101211.78;;;-0.10;100.00
41830;BME280;38614;43.472;23.936;2023-01-26T01:08:48;101190.78;;;-0.25;100.00
41830;BME280;38614;43.472;23.936;2023-01-26T01:11:38;101224.88;;;-0.07;100.00
41830;BME280;38614;43.472;23.936;2023-01-26T01:14:44;101215.41;;;0.01;100.00
41830;BME280;38614;43.472;23.936;2023-01-26T01:17:33;101211.31;;;-0.02;100.00
41830;BME280;38614;43.472;23.936;2023-01-26T01:20:22;101202.06;;;-0.01;100.00
41830;BME280;38614;43.472;23.936;2023-01-26T01:23:10;101179.22;;;-0.05;100.00
41830;BME280;38614;43.472;23.936;2023-01-26T01:26:00;101191.25;;;0.04;100.00
41830;BME280;38614;43.472;23.936;2023-01-26T01:28:52;101178.75;;;0.08;100.00
41830;BME280;38614;43.472;23.936;2023-01-26T01:31:41;101152.22;;;-0.22;100.00
41830;BME280;38614;43.472;23.936;2023-01-26T01:34:29;101165.28;;;-0.19;100.00
41830;BME280;38614;43.472;23.936;2023-01-26T01:37:17;101173.97;;;-0.22;100.00
41830;BME280;38614;43.472;23.936;2023-01-26T01:40:05;101155.81;;;-0.11;100.00
41830;BME280;38614;43.472;23.936;2023-01-26T01:42:53;101166.13;;;-0.18;100.00
41830;BME280;38614;43.472;23.936;2023-01-26T01:45:45;101157.13;;;-0.19;100.00
41830;BME280;38614;43.472;23.936;2023-01-26T01:48:46;101172.66;;;-0.14;100.00
41830;BME280;38614;43.472;23.936;2023-01-26T01:51:44;101159.63;;;-0.12;100.00
41830;BME280;38614;43.472;23.936;2023-01-26T01:54:43;101154.50;;;-0.09;100.00
41830;BME280;38614;43.472;23.936;2023-01-26T01:57:52;101139.25;;;-0.10;100.00
41830;BME280;38614;43.472;23.936;2023-01-26T02:00:41;101124.47;;;-0.29;100.00
41830;BME280;38614;43.472;23.936;2023-01-26T02:03:30;101135.97;;;-0.17;100.00
41830;BME280;38614;43.472;23.936;2023-01-26T02:06:39;101148.53;;;-0.01;100.00
41830;BME280;38614;43.472;23.936;2023-01-26T02:09:32;101146.91;;;-0.02;100.00
41830;BME280;38614;43.472;23.936;2023-01-26T02:12:41;101155.81;;;-0.11;100.00
41830;BME280;38614;43.472;23.936;2023-01-26T02:15:31;101120.69;;;-0.28;100.00
41830;BME280;38614;43.472;23.936;2023-01-26T02:18:19;101140.66;;;-0.02;100.00
41830;BME280;38614;43.472;23.936;2023-01-26T02:21:14;101139.03;;;-0.03;100.00
41830;BME280;38614;43.472;23.936;2023-01-26T02:24:08;101125.16;;;-0.07;100.00
41830;BME280;38614;43.472;23.936;2023-01-26T02:27:01;101113.16;;;-0.11;100.00
41830;BME280;38614;43.472;23.936;2023-01-26T02:29:49;101116.69;;;-0.10;100.00
41830;BME280;38614;43.472;23.936;2023-01-26T02:32:38;101116.66;;;-0.20;100.00
41830;BME280;38614;43.472;23.936;2023-01-26T02:35:26;101113.69;;;-0.14;100.00
41830;BME280;38614;43.472;23.936;2023-01-26T02:38:15;101126.75;;;-0.11;100.00
41830;BME280;38614;43.472;23.936;2023-01-26T02:41:08;101111.78;;;-0.18;100.00
41830;BME280;38614;43.472;23.936;2023-01-26T02:43:57;101109.63;;;-0.11;100.00
41830;BME280;38614;43.472;23.936;2023-01-26T02:46:45;101111.84;;;-0.08;100.00
41830;BME280;38614;43.472;23.936;2023-01-26T02:49:34;101109.34;;;-0.15;100.00
41830;BME280;38614;43.472;23.936;2023-01-26T02:52:35;101109.59;;;-0.21;100.00
41830;BME280;38614;43.472;23.936;2023-01-26T02:55:30;101099.25;;;-0.19;100.00
41830;BME280;38614;43.472;23.936;2023-01-26T02:58:18;101090.28;;;-0.25;100.00
41830;BME280;38614;43.472;23.936;2023-01-26T03:01:05;101066.34;;;-0.33;100.00
41830;BME280;38614;43.472;23.936;2023-01-26T03:04:05;101087.34;;;-0.18;100.00
41830;BME280;38614;43.472;23.936;2023-01-26T03:06:53;101072.91;;;-0.19;100.00
41830;BME280;38614;43.472;23.936;2023-01-26T03:09:41;101067.44;;;-0.29;100.00
41830;BME280;38614;43.472;23.936;2023-01-26T03:12:29;101063.63;;;-0.33;100.00
41830;BME280;38614;43.472;23.936;2023-01-26T03:15:17;101035.38;;;-0.32;100.00
41830;BME280;38614;43.472;23.936;2023-01-26T03:18:23;101059.91;;;-0.17;100.00
41830;BME280;38614;43.472;23.936;2023-01-26T03:21:32;101056.03;;;-0.31;100.00
41830;BME280;38614;43.472;23.936;2023-01-26T03:24:39;101054.16;;;-0.25;100.00
41830;BME280;38614;43.472;23.936;2023-01-26T03:27:47;101001.41;;;-0.45;100.00
41830;BME280;38614;43.472;23.936;2023-01-26T03:30:35;101043.59;;;-0.17;100.00
41830;BME280;38614;43.472;23.936;2023-01-26T03:33:28;101040.06;;;-0.12;100.00
41830;BME280;38614;43.472;23.936;2023-01-26T03:36:16;101023.47;;;-0.21;100.00
41830;BME280;38614;43.472;23.936;2023-01-26T03:39:04;100982.38;;;-0.45;100.00
41830;BME280;38614;43.472;23.936;2023-01-26T03:41:52;101026.50;;;-0.12;100.00
41830;BME280;38614;43.472;23.936;2023-01-26T03:44:59;101018.81;;;-0.31;100.00
41830;BME280;38614;43.472;23.936;2023-01-26T03:48:09;101010.72;;;-0.25;100.00
41830;BME280;38614;43.472;23.936;2023-01-26T03:51:16;101038.41;;;-0.23;100.00
41830;BME280;38614;43.472;23.936;2023-01-26T03:54:22;101031.03;;;-0.33;100.00
41830;BME280;38614;43.472;23.936;2023-01-26T03:57:28;101031.91;;;-0.22;100.00
41830;BME280;38614;43.472;23.936;2023-01-26T04:00:18;101009.84;;;-0.36;100.00
41830;BME280;38614;43.472;23.936;2023-01-26T04:03:10;101026.75;;;-0.14;100.00
41830;BME280;38614;43.472;23.936;2023-01-26T04:06:16;100980.78;;;-0.36;100.00
41830;BME280;38614;43.472;23.936;2023-01-26T04:09:22;101007.72;;;-0.19;100.00
41830;BME280;38614;43.472;23.936;2023-01-26T04:12:10;101010.16;;;-0.22;100.00
41830;BME280;38614;43.472;23.936;2023-01-26T04:15:12;101012.91;;;-0.17;100.00
41830;BME280;38614;43.472;23.936;2023-01-26T04:18:19;101008.00;;;-0.20;100.00
41830;BME280;38614;43.472;23.936;2023-01-26T04:21:26;101014.53;;;-0.16;100.00
41830;BME280;38614;43.472;23.936;2023-01-26T04:24:22;100968.28;;;-0.42;100.00
41830;BME280;38614;43.472;23.936;2023-01-26T04:27:15;101001.47;;;-0.19;100.00
41830;BME280;38614;43.472;23.936;2023-01-26T04:30:07;101007.44;;;-0.22;100.00
41830;BME280;38614;43.472;23.936;2023-01-26T04:32:56;101002.84;;;-0.17;100.00
41830;BME280;38614;43.472;23.936;2023-01-26T04:35:45;100997.13;;;-0.20;100.00
41830;BME280;38614;43.472;23.936;2023-01-26T04:38:34;101005.31;;;-0.15;100.00
41830;BME280;38614;43.472;23.936;2023-01-26T04:41:22;100996.63;;;-0.12;100.00
41830;BME280;38614;43.472;23.936;2023-01-26T04:44:26;100981.94;;;-0.16;100.00
41830;BME280;38614;43.472;23.936;2023-01-26T04:47:20;100985.19;;;-0.14;100.00
41830;BME280;38614;43.472;23.936;2023-01-26T04:50:27;100984.38;;;-0.10;100.00
41830;BME280;38614;43.472;23.936;2023-01-26T04:53:21;100883.47;;;-0.74;100.00
41830;BME280;38614;43.472;23.936;2023-01-26T04:59:06;100977.03;;;-0.19;100.00
41830;BME280;38614;43.472;23.936;2023-01-26T05:01:56;100975.97;;;-0.13;100.00
41830;BME280;38614;43.472;23.936;2023-01-26T05:05:02;100964.53;;;-0.20;100.00
41830;BME280;38614;43.472;23.936;2023-01-26T05:07:52;100959.91;;;-0.20;100.00
41830;BME280;38614;43.472;23.936;2023-01-26T05:10:48;100964.00;;;-0.27;100.00
41830;BME280;38614;43.472;23.936;2023-01-26T05:14:06;100939.47;;;-0.38;100.00
41830;BME280;38614;43.472;23.936;2023-01-26T05:17:02;100955.25;;;-0.30;100.00
41830;BME280;38614;43.472;23.936;2023-01-26T05:20:07;100972.97;;;-0.12;100.00
41830;BME280;38614;43.472;23.936;2023-01-26T05:22:59;100962.66;;;-0.15;100.00
41830;BME280;38614;43.472;23.936;2023-01-26T05:26:05;100965.09;;;-0.13;100.00
41830;BME280;38614;43.472;23.936;2023-01-26T05:29:11;100962.09;;;-0.22;100.00
41830;BME280;38614;43.472;23.936;2023-01-26T05:31:59;100958.56;;;-0.27;100.00
41830;BME280;38614;43.472;23.936;2023-01-26T05:34:47;100929.16;;;-0.46;100.00
41830;BME280;38614;43.472;23.936;2023-01-26T05:37:35;100944.44;;;-0.24;100.00
41830;BME280;38614;43.472;23.936;2023-01-26T05:40:23;100942.78;;;-0.20;100.00
41830;BME280;38614;43.472;23.936;2023-01-26T05:43:12;100959.41;;;-0.17;100.00
41830;BME280;38614;43.472;23.936;2023-01-26T05:46:10;100936.25;;;-0.35;100.00
41830;BME280;38614;43.472;23.936;2023-01-26T05:49:01;100923.19;;;-0.38;100.00
41830;BME280;38614;43.472;23.936;2023-01-26T05:51:49;100962.94;;;-0.11;100.00
41830;BME280;38614;43.472;23.936;2023-01-26T05:54:37;100965.94;;;-0.08;100.00
41830;BME280;38614;43.472;23.936;2023-01-26T05:57:27;100909.59;;;-0.48;100.00
41830;BME280;38614;43.472;23.936;2023-01-26T06:00:22;100943.88;;;-0.21;100.00
41830;BME280;38614;43.472;23.936;2023-01-26T06:03:18;100915.03;;;-0.38;100.00
41830;BME280;38614;43.472;23.936;2023-01-26T06:06:06;100950.16;;;-0.16;100.00
41830;BME280;38614;43.472;23.936;2023-01-26T06:09:07;100950.69;;;-0.14;100.00
41830;BME280;38614;43.472;23.936;2023-01-26T06:12:22;100939.56;;;-0.12;100.00
41830;BME280;38614;43.472;23.936;2023-01-26T06:15:15;100949.91;;;-0.09;100.00
41830;BME280;38614;43.472;23.936;2023-01-26T06:18:07;100946.66;;;-0.06;100.00
41830;BME280;38614;43.472;23.936;2023-01-26T06:20:59;100947.13;;;-0.19;100.00
41830;BME280;38614;43.472;23.936;2023-01-26T06:23:47;100946.34;;;-0.15;100.00
41830;BME280;38614;43.472;23.936;2023-01-26T06:26:35;100939.25;;;-0.21;100.00
41830;BME280;38614;43.472;23.936;2023-01-26T06:29:23;100951.25;;;-0.17;100.00
41830;BME280;38614;43.472;23.936;2023-01-26T06:32:12;100956.97;;;-0.08;100.00
41830;BME280;38614;43.472;23.936;2023-01-26T06:35:02;100916.44;;;-0.25;100.00
41830;BME280;38614;43.472;23.936;2023-01-26T06:37:53;100939.31;;;-0.06;100.00
41830;BME280;38614;43.472;23.936;2023-01-26T06:40:41;100933.88;;;-0.01;100.00
41830;BME280;38614;43.472;23.936;2023-01-26T06:43:33;100926.81;;;-0.02;100.00
41830;BME280;38614;43.472;23.936;2023-01-26T06:46:22;100910.78;;;0.02;100.00
41830;BME280;38614;43.472;23.936;2023-01-26T06:49:12;100927.09;;;-0.08;100.00
41830;BME280;38614;43.472;23.936;2023-01-26T06:52:24;100915.13;;;-0.02;100.00
41830;BME280;38614;43.472;23.936;2023-01-26T06:55:33;100909.97;;;0.02;100.00
41830;BME280;38614;43.472;23.936;2023-01-26T06:58:41;100914.06;;;0.04;100.00
41830;BME280;38614;43.472;23.936;2023-01-26T07:01:54;100917.84;;;0.18;100.00
41830;BME280;38614;43.472;23.936;2023-01-26T07:04:42;100912.13;;;-0.01;100.00
41830;BME280;38614;43.472;23.936;2023-01-26T07:07:31;100906.72;;;0.05;100.00
41830;BME280;38614;43.472;23.936;2023-01-26T07:10:19;100905.91;;;0.04;100.00
41830;BME280;38614;43.472;23.936;2023-01-26T07:13:09;100895.56;;;0.06;100.00
41830;BME280;38614;43.472;23.936;2023-01-26T07:16:00;100876.78;;;-0.11;100.00
41830;BME280;38614;43.472;23.936;2023-01-26T07:18:48;100900.22;;;0.11;100.00
41830;BME280;38614;43.472;23.936;2023-01-26T07:21:40;100888.53;;;0.10;100.00
41830;BME280;38614;43.472;23.936;2023-01-26T07:24:28;100895.00;;;0.09;100.00
41830;BME280;38614;43.472;23.936;2023-01-26T07:27:18;100892.31;;;0.04;100.00
41830;BME280;38614;43.472;23.936;2023-01-26T07:30:07;100869.22;;;-0.09;100.00
41830;BME280;38614;43.472;23.936;2023-01-26T07:32:58;100892.31;;;0.04;100.00
41830;BME280;38614;43.472;23.936;2023-01-26T07:35:46;100876.00;;;-0.01;100.00
41830;BME280;38614;43.472;23.936;2023-01-26T07:38:34;100891.22;;;0.05;100.00
41830;BME280;38614;43.472;23.936;2023-01-26T07:41:21;100885.53;;;0.02;100.00
41830;BME280;38614;43.472;23.936;2023-01-26T07:44:09;100879.25;;;0.06;100.00
41830;BME280;38614;43.472;23.936;2023-01-26T07:47:00;100853.72;;;-0.13;100.00
41830;BME280;38614;43.472;23.936;2023-01-26T07:49:47;100884.41;;;0.18;100.00
41830;BME280;38614;43.472;23.936;2023-01-26T07:52:37;100893.66;;;0.17;100.00
41830;BME280;38614;43.472;23.936;2023-01-26T07:55:24;100882.53;;;0.03;100.00
41830;BME280;38614;43.472;23.936;2023-01-26T07:58:12;100864.88;;;0.11;100.00
41830;BME280;38614;43.472;23.936;2023-01-26T08:01:08;100879.81;;;0.08;100.00
41830;BME280;38614;43.472;23.936;2023-01-26T08:03:56;100882.28;;;0.10;100.00
41830;BME280;38614;43.472;23.936;2023-01-26T08:06:44;100883.91;;;0.11;100.00
41830;BME280;38614;43.472;23.936;2023-01-26T08:09:32;100868.38;;;0.16;100.00
41830;BME280;38614;43.472;23.936;2023-01-26T08:12:24;100874.38;;;0.39;100.00
41830;BME280;38614;43.472;23.936;2023-01-26T08:15:12;100835.78;;;0.11;100.00
41830;BME280;38614;43.472;23.936;2023-01-26T08:18:00;100857.78;;;0.25;100.00
41830;BME280;38614;43.472;23.936;2023-01-26T08:20:53;100824.63;;;0.08;100.00
41830;BME280;38614;43.472;23.936;2023-01-26T08:23:40;100861.31;;;0.36;100.00
41830;BME280;38614;43.472;23.936;2023-01-26T08:26:28;100867.84;;;0.30;100.00
41830;BME280;38614;43.472;23.936;2023-01-26T08:29:18;100870.56;;;0.35;100.00
41830;BME280;38614;43.472;23.936;2023-01-26T08:32:07;100862.94;;;0.42;100.00
41830;BME280;38614;43.472;23.936;2023-01-26T08:34:55;100861.59;;;0.34;100.00
41830;BME280;38614;43.472;23.936;2023-01-26T08:37:43;100845.28;;;0.24;100.00
41830;BME280;38614;43.472;23.936;2023-01-26T08:40:30;100861.28;;;0.46;100.00
41830;BME280;38614;43.472;23.936;2023-01-26T08:43:20;100866.19;;;0.44;100.00
41830;BME280;38614;43.472;23.936;2023-01-26T08:46:08;100822.72;;;0.18;100.00
41830;BME280;38614;43.472;23.936;2023-01-26T08:48:56;100849.38;;;0.32;100.00
41830;BME280;38614;43.472;23.936;2023-01-26T08:51:46;100833.84;;;0.27;100.00
41830;BME280;38614;43.472;23.936;2023-01-26T08:54:34;100846.91;;;0.40;100.00
41830;BME280;38614;43.472;23.936;2023-01-26T08:57:23;100831.72;;;0.29;100.00
41830;BME280;38614;43.472;23.936;2023-01-26T09:00:11;100827.88;;;0.25;100.00
41830;BME280;38614;43.472;23.936;2023-01-26T09:03:01;100800.75;;;0.10;100.00
41830;BME280;38614;43.472;23.936;2023-01-26T09:05:49;100836.31;;;0.39;100.00
41830;BME280;38614;43.472;23.936;2023-01-26T09:08:36;100834.09;;;0.51;100.00
41830;BME280;38614;43.472;23.936;2023-01-26T09:11:24;100824.59;;;0.48;100.00
41830;BME280;38614;43.472;23.936;2023-01-26T09:14:12;100836.78;;;0.61;100.00
41830;BME280;38614;43.472;23.936;2023-01-26T09:16:59;100811.28;;;0.47;100.00
41830;BME280;38614;43.472;23.936;2023-01-26T09:19:47;100810.16;;;0.53;100.00
41830;BME280;38614;43.472;23.936;2023-01-26T09:22:35;100809.03;;;0.64;100.00
41830;BME280;38614;43.472;23.936;2023-01-26T09:25:22;100802.81;;;0.59;100.00
41830;BME280;38614;43.472;23.936;2023-01-26T09:28:11;100800.63;;;0.61;100.00
41830;BME280;38614;43.472;23.936;2023-01-26T09:31:07;100791.13;;;0.58;100.00
41830;BME280;38614;43.472;23.936;2023-01-26T09:33:56;100801.44;;;0.61;100.00
41830;BME280;38614;43.472;23.936;2023-01-26T09:36:43;100790.03;;;0.54;100.00
41830;BME280;38614;43.472;23.936;2023-01-26T09:39:31;100788.97;;;0.50;100.00
41830;BME280;38614;43.472;23.936;2023-01-26T09:45:28;100776.69;;;0.63;100.00
41830;BME280;38614;43.472;23.936;2023-01-26T09:48:20;100772.09;;;0.58;100.00
41830;BME280;38614;43.472;23.936;2023-01-26T09:51:56;100764.22;;;0.51;100.00
41830;BME280;38614;43.472;23.936;2023-01-26T09:54:49;100772.38;;;0.56;100.00
41830;BME280;38614;43.472;23.936;2023-01-26T09:57:53;100768.00;;;0.61;100.00
41830;BME280;38614;43.472;23.936;2023-01-26T10:00:50;100763.69;;;0.44;100.00
41830;BME280;38614;43.472;23.936;2023-01-26T10:04:00;100765.28;;;0.55;100.00
41830;BME280;38614;43.472;23.936;2023-01-26T10:06:55;100758.22;;;0.54;100.00
41830;BME280;38614;43.472;23.936;2023-01-26T10:10:06;100751.91;;;0.64;100.00
41830;BME280;38614;43.472;23.936;2023-01-26T10:12:57;100726.50;;;0.30;100.00
41830;BME280;38614;43.472;23.936;2023-01-26T10:16:12;100755.78;;;0.58;100.00
41830;BME280;38614;43.472;23.936;2023-01-26T10:19:12;100751.91;;;0.64;100.00
41830;BME280;38614;43.472;23.936;2023-01-26T10:22:07;100740.88;;;0.40;100.00
41830;BME280;38614;43.472;23.936;2023-01-26T10:24:58;100710.72;;;0.32;100.00
41830;BME280;38614;43.472;23.936;2023-01-26T10:27:46;100714.97;;;0.58;100.00
41830;BME280;38614;43.472;23.936;2023-01-26T10:30:34;100726.09;;;0.62;100.00
41830;BME280;38614;43.472;23.936;2023-01-26T10:33:32;100726.38;;;0.60;100.00
41830;BME280;38614;43.472;23.936;2023-01-26T10:36:20;100716.59;;;0.59;100.00
41830;BME280;38614;43.472;23.936;2023-01-26T10:39:10;100699.66;;;0.72;100.00
41830;BME280;38614;43.472;23.936;2023-01-26T10:42:02;100706.47;;;0.75;100.00
41830;BME280;38614;43.472;23.936;2023-01-26T10:44:52;100703.28;;;0.52;100.00
41830;BME280;38614;43.472;23.936;2023-01-26T10:47:40;100664.50;;;0.32;100.00
41830;BME280;38614;43.472;23.936;2023-01-26T10:50:27;100694.59;;;0.45;100.00
41830;BME280;38614;43.472;23.936;2023-01-26T10:53:26;100694.94;;;0.34;100.00
41830;BME280;38614;43.472;23.936;2023-01-26T10:56:16;100695.47;;;0.36;100.00
41830;BME280;38614;43.472;23.936;2023-01-26T10:59:06;100681.91;;;0.31;100.00
41830;BME280;38614;43.472;23.936;2023-01-26T11:07:54;100677.19;;;0.51;100.00
41830;BME280;38614;43.472;23.936;2023-01-26T11:10:52;100666.84;;;0.53;100.00
41830;BME280;38614;43.472;23.936;2023-01-26T11:13:40;100657.53;;;0.65;100.00
41830;BME280;38614;43.472;23.936;2023-01-26T11:16:28;100653.41;;;0.77;100.00
41830;BME280;38614;43.472;23.936;2023-01-26T11:38:07;100602.75;;;0.81;100.00
41830;BME280;38614;43.472;23.936;2023-01-26T11:41:35;100590.47;;;0.45;100.00
41830;BME280;38614;43.472;23.936;2023-01-26T11:52:02;100579.50;;;0.65;100.00
41830;BME280;38614;43.472;23.936;2023-01-26T12:01:26;100536.88;;;0.50;100.00
41830;BME280;38614;43.472;23.936;2023-01-26T12:04:20;100554.00;;;0.51;100.00
41830;BME280;38614;43.472;23.936;2023-01-26T12:07:26;100563.91;;;0.76;100.00
41830;BME280;38614;43.472;23.936;2023-01-26T12:10:18;100539.75;;;0.69;100.00
41830;BME280;38614;43.472;23.936;2023-01-26T12:13:37;100553.78;;;0.81;100.00
41830;BME280;38614;43.472;23.936;2023-01-26T12:22:33;100511.03;;;0.53;100.00
41830;BME280;38614;43.472;23.936;2023-01-26T12:31:17;100542.16;;;0.76;100.00
41830;BME280;38614;43.472;23.936;2023-01-26T12:34:11;100542.06;;;0.86;100.00
41830;BME280;38614;43.472;23.936;2023-01-26T12:45:53;100498.06;;;0.74;100.00
41830;BME280;38614;43.472;23.936;2023-01-26T12:48:49;100541.78;;;0.88;100.00
41830;BME280;38614;43.472;23.936;2023-01-26T12:51:44;100528.19;;;0.82;100.00
41830;BME280;38614;43.472;23.936;2023-01-26T12:54:44;100497.59;;;0.67;100.00
41830;BME280;38614;43.472;23.936;2023-01-26T13:00:39;100503.38;;;0.60;100.00
41830;BME280;38614;43.472;23.936;2023-01-26T13:03:57;100506.06;;;0.65;100.00
41830;BME280;38614;43.472;23.936;2023-01-26T13:07:03;100499.09;;;0.83;100.00
41830;BME280;38614;43.472;23.936;2023-01-26T13:19:03;100467.03;;;0.80;100.00
41830;BME280;38614;43.472;23.936;2023-01-26T13:21:53;100479.84;;;0.74;100.00
41830;BME280;38614;43.472;23.936;2023-01-26T13:24:41;100489.78;;;0.89;100.00
41830;BME280;38614;43.472;23.936;2023-01-26T13:27:39;100484.66;;;0.82;100.00
41830;BME280;38614;43.472;23.936;2023-01-26T13:33:21;100481.50;;;0.75;100.00
41830;BME280;38614;43.472;23.936;2023-01-26T13:36:14;100439.72;;;0.61;100.00
41830;BME280;38614;43.472;23.936;2023-01-26T13:39:47;100472.66;;;0.89;100.00
41830;BME280;38614;43.472;23.936;2023-01-26T13:43:33;100461.81;;;0.83;100.00
41830;BME280;38614;43.472;23.936;2023-01-26T13:46:25;100474.13;;;0.76;100.00
41830;BME280;38614;43.472;23.936;2023-01-26T13:49:27;100459.16;;;0.78;100.00
41830;BME280;38614;43.472;23.936;2023-01-26T13:52:24;100457.63;;;0.67;100.00
41830;BME280;38614;43.472;23.936;2023-01-26T13:55:31;100463.19;;;0.81;100.00
41830;BME280;38614;43.472;23.936;2023-01-26T13:58:21;100473.84;;;0.77;100.00
41830;BME280;38614;43.472;23.936;2023-01-26T14:01:11;100468.41;;;0.77;100.00
41830;BME280;38614;43.472;23.936;2023-01-26T14:04:04;100447.84;;;0.66;100.00
41830;BME280;38614;43.472;23.936;2023-01-26T14:06:57;100425.97;;;0.47;100.00
41830;BME280;38614;43.472;23.936;2023-01-26T14:09:50;100447.13;;;0.84;100.00
41830;BME280;38614;43.472;23.936;2023-01-26T14:12:44;100452.50;;;0.90;100.00
41830;BME280;38614;43.472;23.936;2023-01-26T14:15:32;100406.78;;;0.63;100.00
41830;BME280;38614;43.472;23.936;2023-01-26T14:18:21;100423.00;;;0.73;100.00
41830;BME280;38614;43.472;23.936;2023-01-26T14:21:20;100427.97;;;0.95;100.00
41830;BME280;38614;43.472;23.936;2023-01-26T14:24:08;100430.75;;;0.90;100.00
41830;BME280;38614;43.472;23.936;2023-01-26T14:26:57;100419.81;;;0.95;100.00
41830;BME280;38614;43.472;23.936;2023-01-26T14:29:48;100417.06;;;0.71;100.00
41830;BME280;38614;43.472;23.936;2023-01-26T14:32:35;100422.19;;;0.72;100.00
41830;BME280;38614;43.472;23.936;2023-01-26T14:35:24;100420.66;;;0.66;100.00
41830;BME280;38614;43.472;23.936;2023-01-26T14:41:02;100418.13;;;0.75;100.00
41830;BME280;38614;43.472;23.936;2023-01-26T14:43:57;100408.28;;;0.50;100.00
41830;BME280;38614;43.472;23.936;2023-01-26T14:46:55;100408.75;;;0.57;100.00
41830;BME280;38614;43.472;23.936;2023-01-26T14:49:53;100401.94;;;0.60;100.00
41830;BME280;38614;43.472;23.936;2023-01-26T14:52:44;100408.28;;;0.50;100.00
41830;BME280;38614;43.472;23.936;2023-01-26T14:55:34;100405.44;;;0.65;100.00
41830;BME280;38614;43.472;23.936;2023-01-26T14:58:30;100407.31;;;0.65;100.00
41830;BME280;38614;43.472;23.936;2023-01-26T15:01:25;100407.59;;;0.63;100.00
41830;BME280;38614;43.472;23.936;2023-01-26T15:04:23;100404.94;;;0.58;100.00
41830;BME280;38614;43.472;23.936;2023-01-26T15:07:32;100405.69;;;0.64;100.00
41830;BME280;38614;43.472;23.936;2023-01-26T15:10:34;100398.00;;;0.71;100.00
41830;BME280;38614;43.472;23.936;2023-01-26T15:13:24;100386.91;;;0.67;100.00
41830;BME280;38614;43.472;23.936;2023-01-26T15:16:21;100382.03;;;0.64;100.00
41830;BME280;38614;43.472;23.936;2023-01-26T15:19:22;100386.19;;;0.56;100.00
41830;BME280;38614;43.472;23.936;2023-01-26T15:22:22;100382.03;;;0.64;100.00
41830;BME280;38614;43.472;23.936;2023-01-26T15:25:22;100386.66;;;0.64;100.00
41830;BME280;38614;43.472;23.936;2023-01-26T15:28:17;100374.59;;;0.46;100.00
41830;BME280;38614;43.472;23.936;2023-01-26T15:31:06;100384.31;;;0.52;100.00
41830;BME280;38614;43.472;23.936;2023-01-26T15:33:54;100381.31;;;0.53;100.00
41830;BME280;38614;43.472;23.936;2023-01-26T15:39:29;100375.34;;;0.51;100.00
41830;BME280;38614;43.472;23.936;2023-01-26T15:42:22;100372.63;;;0.51;100.00
41830;BME280;38614;43.472;23.936;2023-01-26T15:45:19;100358.81;;;0.48;100.00
41830;BME280;38614;43.472;23.936;2023-01-26T15:48:09;100373.50;;;0.47;100.00
41830;BME280;38614;43.472;23.936;2023-01-26T15:50:57;100368.00;;;0.52;100.00
41830;BME280;38614;43.472;23.936;2023-01-26T15:53:44;100369.59;;;0.58;100.00
41830;BME280;38614;43.472;23.936;2023-01-26T15:56:32;100356.91;;;0.48;100.00
41830;BME280;38614;43.472;23.936;2023-01-26T15:59:20;100355.56;;;0.46;100.00
41830;BME280;38614;43.472;23.936;2023-01-26T16:02:13;100364.38;;;0.62;100.00
41830;BME280;38614;43.472;23.936;2023-01-26T16:05:01;100354.31;;;0.62;100.00
41830;BME280;38614;43.472;23.936;2023-01-26T16:07:49;100348.03;;;0.67;100.00
41830;BME280;38614;43.472;23.936;2023-01-26T16:10:40;100344.75;;;0.65;100.00
41830;BME280;38614;43.472;23.936;2023-01-26T16:13:28;100336.66;;;0.60;100.00
41830;BME280;38614;43.472;23.936;2023-01-26T16:16:20;100343.22;;;0.59;100.00